sensor_id;sensor_type;location;lat;lon;timestamp;temperature;humidity
36450;DHT22;22475;51.390;7.180;2023-04-25T00:02:07;13.10;89.10
36450;DHT22;22475;51.390;7.180;2023-04-25T00:04:34;13.10;89.10
36450;DHT22;22475;51.390;7.180;2023-04-25T00:07:04;13.10;89.00
36450;DHT22;22475;51.390;7.180;2023-04-25T00:09:31;13.10;89.00
36450;DHT22;22475;51.390;7.180;2023-04-25T00:11:58;13.20;89.00
36450;DHT22;22475;51.390;7.180;2023-04-25T00:14:26;13.10;89.00
36450;DHT22;22475;51.390;7.180;2023-04-25T00:16:54;13.20;89.00
36450;DHT22;22475;51.390;7.180;2023-04-25T00:19:21;13.10;89.00
36450;DHT22;22475;51.390;7.180;2023-04-25T00:21:48;13.10;89.00
36450;DHT22;22475;51.390;7.180;2023-04-25T00:24:16;13.20;89.00
36450;DHT22;22475;51.390;7.180;2023-04-25T00:26:43;13.10;89.10
36450;DHT22;22475;51.390;7.180;2023-04-25T00:29:10;13.20;89.20
36450;DHT22;22475;51.390;7.180;2023-04-25T00:31:37;13.10;89.20
36450;DHT22;22475;51.390;7.180;2023-04-25T00:34:03;13.10;89.20
36450;DHT22;22475;51.390;7.180;2023-04-25T00:36:30;13.20;89.40
36450;DHT22;22475;51.390;7.180;2023-04-25T00:38:57;13.20;89.40
36450;DHT22;22475;51.390;7.180;2023-04-25T00:41:25;13.20;89.50
36450;DHT22;22475;51.390;7.180;2023-04-25T00:43:54;13.20;89.40
36450;DHT22;22475;51.390;7.180;2023-04-25T00:46:21;13.20;89.40
36450;DHT22;22475;51.390;7.180;2023-04-25T00:48:47;13.20;89.40
36450;DHT22;22475;51.390;7.180;2023-04-25T00:51:16;13.20;89.30
36450;DHT22;22475;51.390;7.180;2023-04-25T00:53:46;13.20;89.30
36450;DHT22;22475;51.390;7.180;2023-04-25T00:56:13;13.20;89.30
36450;DHT22;22475;51.390;7.180;2023-04-25T00:58:42;13.20;90.00
36450;DHT22;22475;51.390;7.180;2023-04-25T01:01:10;13.20;89.40
36450;DHT22;22475;51.390;7.180;2023-04-25T01:03:38;13.20;89.50
36450;DHT22;22475;51.390;7.180;2023-04-25T01:06:07;13.20;89.80
36450;DHT22;22475;51.390;7.180;2023-04-25T01:08:35;13.20;89.90
36450;DHT22;22475;51.390;7.180;2023-04-25T01:11:01;13.20;89.90
36450;DHT22;22475;51.390;7.180;2023-04-25T01:13:28;13.20;89.80
36450;DHT22;22475;51.390;7.180;2023-04-25T01:15:58;13.20;89.80
36450;DHT22;22475;51.390;7.180;2023-04-25T01:18:25;13.20;89.80
36450;DHT22;22475;51.390;7.180;2023-04-25T01:20:53;13.20;89.80
36450;DHT22;22475;51.390;7.180;2023-04-25T01:23:21;13.20;89.90
36450;DHT22;22475;51.390;7.180;2023-04-25T01:25:48;13.20;89.80
36450;DHT22;22475;51.390;7.180;2023-04-25T01:28:16;13.20;89.80
36450;DHT22;22475;51.390;7.180;2023-04-25T01:30:43;13.20;89.90
36450;DHT22;22475;51.390;7.180;2023-04-25T01:33:10;13.20;90.00
36450;DHT22;22475;51.390;7.180;2023-04-25T01:35:37;13.20;89.90
36450;DHT22;22475;51.390;7.180;2023-04-25T01:38:04;13.20;89.80
36450;DHT22;22475;51.390;7.180;2023-04-25T01:40:33;13.20;89.80
36450;DHT22;22475;51.390;7.180;2023-04-25T01:43:01;13.10;89.80
36450;DHT22;22475;51.390;7.180;2023-04-25T01:45:28;13.20;90.00
36450;DHT22;22475;51.390;7.180;2023-04-25T01:47:55;13.20;90.00
36450;DHT22;22475;51.390;7.180;2023-04-25T01:50:25;13.20;90.00
36450;DHT22;22475;51.390;7.180;2023-04-25T01:52:51;13.20;89.80
36450;DHT22;22475;51.390;7.180;2023-04-25T01:55:19;13.20;89.80
36450;DHT22;22475;51.390;7.180;2023-04-25T01:57:47;13.10;89.70
36450;DHT22;22475;51.390;7.180;2023-04-25T02:00:14;13.10;89.70
36450;DHT22;22475;51.390;7.180;2023-04-25T02:02:41;13.20;89.80
36450;DHT22;22475;51.390;7.180;2023-04-25T02:05:08;13.20;89.80
36450;DHT22;22475;51.390;7.180;2023-04-25T02:07:35;13.10;89.70
36450;DHT22;22475;51.390;7.180;2023-04-25T02:10:01;13.10;89.80
36450;DHT22;22475;51.390;7.180;2023-04-25T02:12:28;13.10;89.70
36450;DHT22;22475;51.390;7.180;2023-04-25T02:14:57;13.10;89.70
36450;DHT22;22475;51.390;7.180;2023-04-25T02:17:24;13.10;89.70
36450;DHT22;22475;51.390;7.180;2023-04-25T02:19:51;13.10;89.80
36450;DHT22;22475;51.390;7.180;2023-04-25T02:22:18;13.10;89.80
36450;DHT22;22475;51.390;7.180;2023-04-25T02:24:46;13.10;89.80
36450;DHT22;22475;51.390;7.180;2023-04-25T02:27:13;13.10;89.80
36450;DHT22;22475;51.390;7.180;2023-04-25T02:29:39;13.10;89.80
36450;DHT22;22475;51.390;7.180;2023-04-25T02:32:07;13.10;89.90
36450;DHT22;22475;51.390;7.180;2023-04-25T02:34:34;13.10;89.80
36450;DHT22;22475;51.390;7.180;2023-04-25T02:37:01;13.10;89.80
36450;DHT22;22475;51.390;7.180;2023-04-25T02:39:27;13.10;89.90
36450;DHT22;22475;51.390;7.180;2023-04-25T02:41:54;13.10;89.90
36450;DHT22;22475;51.390;7.180;2023-04-25T02:44:21;13.10;89.90
36450;DHT22;22475;51.390;7.180;2023-04-25T02:46:48;13.10;89.90
36450;DHT22;22475;51.390;7.180;2023-04-25T02:49:16;13.10;89.90
36450;DHT22;22475;51.390;7.180;2023-04-25T02:51:42;13.10;89.90
36450;DHT22;22475;51.390;7.180;2023-04-25T02:54:09;13.10;90.00
36450;DHT22;22475;51.390;7.180;2023-04-25T02:56:36;13.10;90.00
36450;DHT22;22475;51.390;7.180;2023-04-25T02:59:03;13.10;90.00
36450;DHT22;22475;51.390;7.180;2023-04-25T03:01:29;13.10;90.00
36450;DHT22;22475;51.390;7.180;2023-04-25T03:03:56;13.00;90.00
36450;DHT22;22475;51.390;7.180;2023-04-25T03:06:24;13.00;90.00
36450;DHT22;22475;51.390;7.180;2023-04-25T03:08:51;13.00;90.00
36450;DHT22;22475;51.390;7.180;2023-04-25T03:11:18;13.00;90.00
36450;DHT22;22475;51.390;7.180;2023-04-25T03:13:45;13.10;90.20
36450;DHT22;22475;51.390;7.180;2023-04-25T03:16:12;13.00;90.00
36450;DHT22;22475;51.390;7.180;2023-04-25T03:18:39;13.00;90.10
36450;DHT22;22475;51.390;7.180;2023-04-25T03:21:05;13.00;90.10
36450;DHT22;22475;51.390;7.180;2023-04-25T03:23:34;13.00;90.10
36450;DHT22;22475;51.390;7.180;2023-04-25T03:26:00;13.00;90.10
36450;DHT22;22475;51.390;7.180;2023-04-25T03:28:27;13.00;90.10
36450;DHT22;22475;51.390;7.180;2023-04-25T03:30:54;13.00;90.20
36450;DHT22;22475;51.390;7.180;2023-04-25T03:33:22;13.00;90.20
36450;DHT22;22475;51.390;7.180;2023-04-25T03:35:48;13.00;90.30
36450;DHT22;22475;51.390;7.180;2023-04-25T03:38:16;13.00;90.30
36450;DHT22;22475;51.390;7.180;2023-04-25T03:40:44;13.00;90.40
36450;DHT22;22475;51.390;7.180;2023-04-25T03:43:11;13.00;90.40
36450;DHT22;22475;51.390;7.180;2023-04-25T03:45:37;13.00;90.50
36450;DHT22;22475;51.390;7.180;2023-04-25T03:48:04;12.90;90.50
36450;DHT22;22475;51.390;7.180;2023-04-25T03:50:31;12.90;90.50
36450;DHT22;22475;51.390;7.180;2023-04-25T03:52:58;12.90;90.50
36450;DHT22;22475;51.390;7.180;2023-04-25T03:55:24;12.90;90.60
36450;DHT22;22475;51.390;7.180;2023-04-25T03:57:52;13.00;90.60
36450;DHT22;22475;51.390;7.180;2023-04-25T04:00:19;12.90;90.60
36450;DHT22;22475;51.390;7.180;2023-04-25T04:02:46;12.90;90.60
36450;DHT22;22475;51.390;7.180;2023-04-25T04:05:13;12.90;90.70
36450;DHT22;22475;51.390;7.180;2023-04-25T04:07:39;12.90;90.70
36450;DHT22;22475;51.390;7.180;2023-04-25T04:10:08;12.90;90.70
36450;DHT22;22475;51.390;7.180;2023-04-25T04:12:35;12.90;90.70
36450;DHT22;22475;51.390;7.180;2023-04-25T04:15:05;12.90;90.80
36450;DHT22;22475;51.390;7.180;2023-04-25T04:17:32;12.90;91.10
36450;DHT22;22475;51.390;7.180;2023-04-25T04:19:59;12.90;90.80
36450;DHT22;22475;51.390;7.180;2023-04-25T04:22:26;12.90;90.80
36450;DHT22;22475;51.390;7.180;2023-04-25T04:24:53;12.90;90.80
36450;DHT22;22475;51.390;7.180;2023-04-25T04:27:21;12.90;90.90
36450;DHT22;22475;51.390;7.180;2023-04-25T04:29:48;12.90;90.90
36450;DHT22;22475;51.390;7.180;2023-04-25T04:32:18;12.90;90.90
36450;DHT22;22475;51.390;7.180;2023-04-25T04:34:45;12.90;90.90
36450;DHT22;22475;51.390;7.180;2023-04-25T04:37:13;12.90;91.00
36450;DHT22;22475;51.390;7.180;2023-04-25T04:39:40;12.90;91.00
36450;DHT22;22475;51.390;7.180;2023-04-25T04:42:07;12.90;91.00
36450;DHT22;22475;51.390;7.180;2023-04-25T04:44:34;12.90;91.00
36450;DHT22;22475;51.390;7.180;2023-04-25T04:47:01;12.80;90.90
36450;DHT22;22475;51.390;7.180;2023-04-25T04:49:30;12.80;90.90
36450;DHT22;22475;51.390;7.180;2023-04-25T04:51:57;12.80;90.80
36450;DHT22;22475;51.390;7.180;2023-04-25T04:54:25;12.80;90.70
36450;DHT22;22475;51.390;7.180;2023-04-25T04:56:52;12.80;90.60
36450;DHT22;22475;51.390;7.180;2023-04-25T04:59:19;12.80;90.50
36450;DHT22;22475;51.390;7.180;2023-04-25T05:01:45;12.80;90.40
36450;DHT22;22475;51.390;7.180;2023-04-25T05:04:12;12.80;90.40
36450;DHT22;22475;51.390;7.180;2023-04-25T05:06:40;12.80;90.40
36450;DHT22;22475;51.390;7.180;2023-04-25T05:09:07;12.80;90.30
36450;DHT22;22475;51.390;7.180;2023-04-25T05:11:34;12.70;90.20
36450;DHT22;22475;51.390;7.180;2023-04-25T05:14:00;12.70;90.10
36450;DHT22;22475;51.390;7.180;2023-04-25T05:16:27;12.70;90.00
36450;DHT22;22475;51.390;7.180;2023-04-25T05:18:54;12.70;89.90
36450;DHT22;22475;51.390;7.180;2023-04-25T05:21:21;12.70;89.80
36450;DHT22;22475;51.390;7.180;2023-04-25T05:23:49;12.80;90.00
36450;DHT22;22475;51.390;7.180;2023-04-25T05:26:15;12.70;90.00
36450;DHT22;22475;51.390;7.180;2023-04-25T05:28:42;12.70;89.90
36450;DHT22;22475;51.390;7.180;2023-04-25T05:31:10;12.70;90.00
36450;DHT22;22475;51.390;7.180;2023-04-25T05:33:36;12.80;90.00
36450;DHT22;22475;51.390;7.180;2023-04-25T05:36:04;12.70;90.10
36450;DHT22;22475;51.390;7.180;2023-04-25T05:38:31;12.70;90.10
36450;DHT22;22475;51.390;7.180;2023-04-25T05:40:59;12.80;90.10
36450;DHT22;22475;51.390;7.180;2023-04-25T05:43:26;12.70;90.20
36450;DHT22;22475;51.390;7.180;2023-04-25T05:45:53;12.80;90.20
36450;DHT22;22475;51.390;7.180;2023-04-25T05:48:19;12.70;90.20
36450;DHT22;22475;51.390;7.180;2023-04-25T05:50:46;12.80;90.30
36450;DHT22;22475;51.390;7.180;2023-04-25T05:53:13;12.80;90.30
36450;DHT22;22475;51.390;7.180;2023-04-25T05:55:40;12.80;90.40
36450;DHT22;22475;51.390;7.180;2023-04-25T05:58:08;12.80;90.40
36450;DHT22;22475;51.390;7.180;2023-04-25T06:00:34;12.80;90.40
36450;DHT22;22475;51.390;7.180;2023-04-25T06:03:01;12.80;90.40
36450;DHT22;22475;51.390;7.180;2023-04-25T06:05:28;12.80;90.40
36450;DHT22;22475;51.390;7.180;2023-04-25T06:07:55;12.80;90.50
36450;DHT22;22475;51.390;7.180;2023-04-25T06:10:22;12.90;90.50
36450;DHT22;22475;51.390;7.180;2023-04-25T06:12:49;12.80;90.50
36450;DHT22;22475;51.390;7.180;2023-04-25T06:15:17;12.80;90.50
36450;DHT22;22475;51.390;7.180;2023-04-25T06:17:44;12.80;90.60
36450;DHT22;22475;51.390;7.180;2023-04-25T06:20:11;12.80;90.50
36450;DHT22;22475;51.390;7.180;2023-04-25T06:22:38;12.80;90.50
36450;DHT22;22475;51.390;7.180;2023-04-25T06:25:05;12.80;90.40
36450;DHT22;22475;51.390;7.180;2023-04-25T06:27:32;12.90;90.40
36450;DHT22;22475;51.390;7.180;2023-04-25T06:29:59;12.90;90.40
36450;DHT22;22475;51.390;7.180;2023-04-25T06:32:27;12.90;90.40
36450;DHT22;22475;51.390;7.180;2023-04-25T06:34:55;12.90;90.40
36450;DHT22;22475;51.390;7.180;2023-04-25T06:37:22;12.90;90.40
36450;DHT22;22475;51.390;7.180;2023-04-25T06:39:48;12.90;90.40
36450;DHT22;22475;51.390;7.180;2023-04-25T06:42:15;12.90;90.40
36450;DHT22;22475;51.390;7.180;2023-04-25T06:44:42;12.90;90.30
36450;DHT22;22475;51.390;7.180;2023-04-25T06:47:08;12.90;90.30
36450;DHT22;22475;51.390;7.180;2023-04-25T06:49:37;12.90;90.30
36450;DHT22;22475;51.390;7.180;2023-04-25T06:52:03;12.90;90.30
36450;DHT22;22475;51.390;7.180;2023-04-25T06:54:30;12.90;90.30
36450;DHT22;22475;51.390;7.180;2023-04-25T06:56:57;12.90;90.30
36450;DHT22;22475;51.390;7.180;2023-04-25T06:59:23;12.90;90.30
36450;DHT22;22475;51.390;7.180;2023-04-25T07:01:50;12.90;90.20
36450;DHT22;22475;51.390;7.180;2023-04-25T07:04:17;12.90;90.20
36450;DHT22;22475;51.390;7.180;2023-04-25T07:06:45;12.90;90.20
36450;DHT22;22475;51.390;7.180;2023-04-25T07:09:13;12.90;90.20
36450;DHT22;22475;51.390;7.180;2023-04-25T07:11:40;12.90;90.10
36450;DHT22;22475;51.390;7.180;2023-04-25T07:14:07;12.90;90.10
36450;DHT22;22475;51.390;7.180;2023-04-25T07:16:33;12.90;90.00
36450;DHT22;22475;51.390;7.180;2023-04-25T07:19:00;12.90;89.90
36450;DHT22;22475;51.390;7.180;2023-04-25T07:21:27;12.90;89.80
36450;DHT22;22475;51.390;7.180;2023-04-25T07:23:55;12.90;89.60
36450;DHT22;22475;51.390;7.180;2023-04-25T07:26:22;12.90;89.50
36450;DHT22;22475;51.390;7.180;2023-04-25T07:28:48;12.90;89.40
36450;DHT22;22475;51.390;7.180;2023-04-25T07:31:16;12.90;89.30
36450;DHT22;22475;51.390;7.180;2023-04-25T07:33:43;12.90;89.10
36450;DHT22;22475;51.390;7.180;2023-04-25T07:36:10;12.90;89.00
36450;DHT22;22475;51.390;7.180;2023-04-25T07:38:37;12.90;88.80
36450;DHT22;22475;51.390;7.180;2023-04-25T07:41:05;12.90;88.80
36450;DHT22;22475;51.390;7.180;2023-04-25T07:43:32;12.90;88.40
36450;DHT22;22475;51.390;7.180;2023-04-25T07:45:59;12.90;88.20
36450;DHT22;22475;51.390;7.180;2023-04-25T07:48:26;12.90;88.10
36450;DHT22;22475;51.390;7.180;2023-04-25T07:50:52;12.90;87.90
36450;DHT22;22475;51.390;7.180;2023-04-25T07:53:19;12.90;87.90
36450;DHT22;22475;51.390;7.180;2023-04-25T07:55:46;12.90;87.70
36450;DHT22;22475;51.390;7.180;2023-04-25T07:58:14;12.90;87.60
36450;DHT22;22475;51.390;7.180;2023-04-25T08:00:46;12.90;87.70
36450;DHT22;22475;51.390;7.180;2023-04-25T08:03:13;12.90;87.70
36450;DHT22;22475;51.390;7.180;2023-04-25T08:05:40;12.90;87.80
36450;DHT22;22475;51.390;7.180;2023-04-25T08:08:06;12.90;87.80
36450;DHT22;22475;51.390;7.180;2023-04-25T08:10:33;12.90;87.90
36450;DHT22;22475;51.390;7.180;2023-04-25T08:13:00;12.90;87.80
36450;DHT22;22475;51.390;7.180;2023-04-25T08:15:28;12.90;87.80
36450;DHT22;22475;51.390;7.180;2023-04-25T08:17:55;12.90;87.60
36450;DHT22;22475;51.390;7.180;2023-04-25T08:20:22;13.00;87.70
36450;DHT22;22475;51.390;7.180;2023-04-25T08:22:48;13.00;87.60
36450;DHT22;22475;51.390;7.180;2023-04-25T08:25:15;13.00;87.60
36450;DHT22;22475;51.390;7.180;2023-04-25T08:27:42;13.00;87.40
36450;DHT22;22475;51.390;7.180;2023-04-25T08:30:09;13.00;87.30
36450;DHT22;22475;51.390;7.180;2023-04-25T08:32:37;13.00;87.20
36450;DHT22;22475;51.390;7.180;2023-04-25T08:35:04;13.00;87.10
36450;DHT22;22475;51.390;7.180;2023-04-25T08:37:32;13.00;87.00
36450;DHT22;22475;51.390;7.180;2023-04-25T08:39:59;13.10;86.90
36450;DHT22;22475;51.390;7.180;2023-04-25T08:42:27;13.10;86.80
36450;DHT22;22475;51.390;7.180;2023-04-25T08:44:54;13.10;86.70
36450;DHT22;22475;51.390;7.180;2023-04-25T08:47:22;13.10;86.60
36450;DHT22;22475;51.390;7.180;2023-04-25T08:49:51;13.10;86.40
36450;DHT22;22475;51.390;7.180;2023-04-25T08:52:21;13.10;86.40
36450;DHT22;22475;51.390;7.180;2023-04-25T08:54:49;13.10;86.30
36450;DHT22;22475;51.390;7.180;2023-04-25T08:57:17;13.10;86.20
36450;DHT22;22475;51.390;7.180;2023-04-25T08:59:44;13.10;86.20
36450;DHT22;22475;51.390;7.180;2023-04-25T09:02:12;13.10;86.00
36450;DHT22;22475;51.390;7.180;2023-04-25T09:04:42;13.10;85.80
36450;DHT22;22475;51.390;7.180;2023-04-25T09:07:11;13.20;85.60
36450;DHT22;22475;51.390;7.180;2023-04-25T09:09:41;13.20;85.50
36450;DHT22;22475;51.390;7.180;2023-04-25T09:12:08;13.10;85.40
36450;DHT22;22475;51.390;7.180;2023-04-25T09:14:35;13.20;85.40
36450;DHT22;22475;51.390;7.180;2023-04-25T09:17:03;13.20;85.20
36450;DHT22;22475;51.390;7.180;2023-04-25T09:19:31;13.20;85.30
36450;DHT22;22475;51.390;7.180;2023-04-25T09:22:00;13.20;85.30
36450;DHT22;22475;51.390;7.180;2023-04-25T09:24:37;13.20;85.30
36450;DHT22;22475;51.390;7.180;2023-04-25T09:27:04;13.20;85.20
36450;DHT22;22475;51.390;7.180;2023-04-25T09:29:33;13.20;85.20
36450;DHT22;22475;51.390;7.180;2023-04-25T09:32:17;13.20;85.30
36450;DHT22;22475;51.390;7.180;2023-04-25T09:34:46;13.20;85.10
36450;DHT22;22475;51.390;7.180;2023-04-25T09:37:18;13.20;85.00
36450;DHT22;22475;51.390;7.180;2023-04-25T09:39:47;13.20;84.80
36450;DHT22;22475;51.390;7.180;2023-04-25T09:42:15;13.20;84.70
36450;DHT22;22475;51.390;7.180;2023-04-25T09:44:43;13.30;84.60
36450;DHT22;22475;51.390;7.180;2023-04-25T09:47:11;13.30;84.40
36450;DHT22;22475;51.390;7.180;2023-04-25T09:49:39;13.20;84.00
36450;DHT22;22475;51.390;7.180;2023-04-25T09:52:07;13.30;83.90
36450;DHT22;22475;51.390;7.180;2023-04-25T09:54:34;13.20;83.80
36450;DHT22;22475;51.390;7.180;2023-04-25T09:57:09;13.30;83.70
36450;DHT22;22475;51.390;7.180;2023-04-25T09:59:38;13.30;83.40
36450;DHT22;22475;51.390;7.180;2023-04-25T10:02:07;13.30;83.40
36450;DHT22;22475;51.390;7.180;2023-04-25T10:04:35;13.30;83.90
36450;DHT22;22475;51.390;7.180;2023-04-25T10:07:03;13.30;83.10
36450;DHT22;22475;51.390;7.180;2023-04-25T10:09:32;13.40;82.90
36450;DHT22;22475;51.390;7.180;2023-04-25T10:12:00;13.40;82.80
36450;DHT22;22475;51.390;7.180;2023-04-25T10:14:29;13.40;82.70
36450;DHT22;22475;51.390;7.180;2023-04-25T10:16:57;13.40;82.50
36450;DHT22;22475;51.390;7.180;2023-04-25T10:19:24;13.40;82.50
36450;DHT22;22475;51.390;7.180;2023-04-25T10:21:54;13.40;82.50
36450;DHT22;22475;51.390;7.180;2023-04-25T10:24:22;13.30;82.40
36450;DHT22;22475;51.390;7.180;2023-04-25T10:26:50;13.40;82.40
36450;DHT22;22475;51.390;7.180;2023-04-25T10:29:22;13.40;82.40
36450;DHT22;22475;51.390;7.180;2023-04-25T10:31:50;13.40;82.40
36450;DHT22;22475;51.390;7.180;2023-04-25T10:34:17;13.40;82.40
36450;DHT22;22475;51.390;7.180;2023-04-25T10:36:50;13.40;82.20
36450;DHT22;22475;51.390;7.180;2023-04-25T10:39:22;13.40;82.10
36450;DHT22;22475;51.390;7.180;2023-04-25T10:41:53;13.40;82.30
36450;DHT22;22475;51.390;7.180;2023-04-25T10:44:21;13.40;82.00
36450;DHT22;22475;51.390;7.180;2023-04-25T10:46:50;13.40;82.00
36450;DHT22;22475;51.390;7.180;2023-04-25T10:49:30;13.40;81.80
36450;DHT22;22475;51.390;7.180;2023-04-25T10:52:15;13.40;82.20
36450;DHT22;22475;51.390;7.180;2023-04-25T10:54:46;13.40;81.20
36450;DHT22;22475;51.390;7.180;2023-04-25T10:57:32;13.40;81.20
36450;DHT22;22475;51.390;7.180;2023-04-25T11:00:08;13.40;81.20
36450;DHT22;22475;51.390;7.180;2023-04-25T11:02:45;13.40;81.20
36450;DHT22;22475;51.390;7.180;2023-04-25T11:05:20;13.40;80.90
36450;DHT22;22475;51.390;7.180;2023-04-25T11:07:51;13.40;80.70
36450;DHT22;22475;51.390;7.180;2023-04-25T11:10:18;13.50;80.80
36450;DHT22;22475;51.390;7.180;2023-04-25T11:12:46;13.40;80.70
36450;DHT22;22475;51.390;7.180;2023-04-25T11:15:13;13.40;80.40
36450;DHT22;22475;51.390;7.180;2023-04-25T11:17:40;13.40;80.30
36450;DHT22;22475;51.390;7.180;2023-04-25T11:20:09;13.40;80.40
36450;DHT22;22475;51.390;7.180;2023-04-25T11:22:38;13.40;80.80
36450;DHT22;22475;51.390;7.180;2023-04-25T11:25:06;13.40;81.20
36450;DHT22;22475;51.390;7.180;2023-04-25T11:27:33;13.40;81.60
36450;DHT22;22475;51.390;7.180;2023-04-25T11:30:10;13.40;81.80
36450;DHT22;22475;51.390;7.180;2023-04-25T11:32:39;13.40;82.40
36450;DHT22;22475;51.390;7.180;2023-04-25T11:35:08;13.40;82.60
36450;DHT22;22475;51.390;7.180;2023-04-25T11:37:35;13.30;82.70
36450;DHT22;22475;51.390;7.180;2023-04-25T11:40:03;13.30;82.80
36450;DHT22;22475;51.390;7.180;2023-04-25T11:42:30;13.30;82.90
36450;DHT22;22475;51.390;7.180;2023-04-25T11:44:57;13.30;83.10
36450;DHT22;22475;51.390;7.180;2023-04-25T11:47:28;13.40;83.30
36450;DHT22;22475;51.390;7.180;2023-04-25T11:49:55;13.30;83.30
36450;DHT22;22475;51.390;7.180;2023-04-25T11:52:23;13.30;83.30
36450;DHT22;22475;51.390;7.180;2023-04-25T11:54:50;13.30;83.20
36450;DHT22;22475;51.390;7.180;2023-04-25T11:57:19;13.30;83.30
36450;DHT22;22475;51.390;7.180;2023-04-25T11:59:46;13.30;83.40
36450;DHT22;22475;51.390;7.180;2023-04-25T12:02:24;13.40;83.50
36450;DHT22;22475;51.390;7.180;2023-04-25T12:04:50;13.40;83.30
36450;DHT22;22475;51.390;7.180;2023-04-25T12:07:17;13.40;83.10
36450;DHT22;22475;51.390;7.180;2023-04-25T12:09:51;13.40;82.90
36450;DHT22;22475;51.390;7.180;2023-04-25T12:12:18;13.40;82.60
36450;DHT22;22475;51.390;7.180;2023-04-25T12:14:47;13.40;82.50
36450;DHT22;22475;51.390;7.180;2023-04-25T12:17:14;13.40;82.40
36450;DHT22;22475;51.390;7.180;2023-04-25T12:19:40;13.40;82.40
36450;DHT22;22475;51.390;7.180;2023-04-25T12:22:21;13.50;82.20
36450;DHT22;22475;51.390;7.180;2023-04-25T12:24:49;13.40;81.90
36450;DHT22;22475;51.390;7.180;2023-04-25T12:27:18;13.40;81.90
36450;DHT22;22475;51.390;7.180;2023-04-25T12:29:51;13.50;81.80
36450;DHT22;22475;51.390;7.180;2023-04-25T12:32:18;13.50;81.40
36450;DHT22;22475;51.390;7.180;2023-04-25T12:34:44;13.50;81.40
36450;DHT22;22475;51.390;7.180;2023-04-25T12:37:11;13.50;81.30
36450;DHT22;22475;51.390;7.180;2023-04-25T12:39:38;13.50;81.30
36450;DHT22;22475;51.390;7.180;2023-04-25T12:42:06;13.50;81.20
36450;DHT22;22475;51.390;7.180;2023-04-25T12:44:37;13.50;81.30
36450;DHT22;22475;51.390;7.180;2023-04-25T12:47:04;13.50;81.20
36450;DHT22;22475;51.390;7.180;2023-04-25T12:49:31;13.50;81.10
36450;DHT22;22475;51.390;7.180;2023-04-25T12:51:58;13.50;80.90
36450;DHT22;22475;51.390;7.180;2023-04-25T12:54:25;13.50;80.80
36450;DHT22;22475;51.390;7.180;2023-04-25T12:56:52;13.50;80.60
36450;DHT22;22475;51.390;7.180;2023-04-25T12:59:20;13.50;80.60
36450;DHT22;22475;51.390;7.180;2023-04-25T13:01:47;13.50;80.80
36450;DHT22;22475;51.390;7.180;2023-04-25T13:04:13;13.60;80.80
36450;DHT22;22475;51.390;7.180;2023-04-25T13:06:41;13.60;80.80
36450;DHT22;22475;51.390;7.180;2023-04-25T13:09:07;13.60;80.90
36450;DHT22;22475;51.390;7.180;2023-04-25T13:11:34;13.50;81.10
36450;DHT22;22475;51.390;7.180;2023-04-25T13:14:01;13.60;81.70
36450;DHT22;22475;51.390;7.180;2023-04-25T13:16:30;13.60;81.70
36450;DHT22;22475;51.390;7.180;2023-04-25T13:18:57;13.60;81.30
36450;DHT22;22475;51.390;7.180;2023-04-25T13:21:24;13.60;80.70
36450;DHT22;22475;51.390;7.180;2023-04-25T13:23:52;13.60;80.10
36450;DHT22;22475;51.390;7.180;2023-04-25T13:26:19;13.60;79.90
36450;DHT22;22475;51.390;7.180;2023-04-25T13:28:45;13.60;79.70
36450;DHT22;22475;51.390;7.180;2023-04-25T13:31:12;13.60;79.70
36450;DHT22;22475;51.390;7.180;2023-04-25T13:33:40;13.60;79.90
36450;DHT22;22475;51.390;7.180;2023-04-25T13:36:07;13.60;80.00
36450;DHT22;22475;51.390;7.180;2023-04-25T13:38:34;13.60;80.10
36450;DHT22;22475;51.390;7.180;2023-04-25T13:41:01;13.60;80.20
36450;DHT22;22475;51.390;7.180;2023-04-25T13:43:27;13.60;80.30
36450;DHT22;22475;51.390;7.180;2023-04-25T13:45:54;13.60;80.10
36450;DHT22;22475;51.390;7.180;2023-04-25T13:48:21;13.60;80.00
36450;DHT22;22475;51.390;7.180;2023-04-25T13:50:49;13.60;80.10
36450;DHT22;22475;51.390;7.180;2023-04-25T13:53:16;13.60;80.10
36450;DHT22;22475;51.390;7.180;2023-04-25T13:55:43;13.60;80.20
36450;DHT22;22475;51.390;7.180;2023-04-25T13:58:09;13.50;80.30
36450;DHT22;22475;51.390;7.180;2023-04-25T14:00:38;13.50;80.50
36450;DHT22;22475;51.390;7.180;2023-04-25T14:03:05;13.50;80.60
36450;DHT22;22475;51.390;7.180;2023-04-25T14:05:34;13.50;80.60
36450;DHT22;22475;51.390;7.180;2023-04-25T14:08:06;13.50;80.70
36450;DHT22;22475;51.390;7.180;2023-04-25T14:10:33;13.50;80.80
36450;DHT22;22475;51.390;7.180;2023-04-25T14:13:00;13.50;81.00
36450;DHT22;22475;51.390;7.180;2023-04-25T14:15:29;13.50;81.00
36450;DHT22;22475;51.390;7.180;2023-04-25T14:17:55;13.60;81.20
36450;DHT22;22475;51.390;7.180;2023-04-25T14:20:22;13.60;81.10
36450;DHT22;22475;51.390;7.180;2023-04-25T14:22:49;13.60;80.90
36450;DHT22;22475;51.390;7.180;2023-04-25T14:25:18;13.60;80.60
36450;DHT22;22475;51.390;7.180;2023-04-25T14:27:45;13.60;80.20
36450;DHT22;22475;51.390;7.180;2023-04-25T14:30:15;13.60;80.10
36450;DHT22;22475;51.390;7.180;2023-04-25T14:32:42;13.60;80.10
36450;DHT22;22475;51.390;7.180;2023-04-25T14:35:09;13.60;79.90
36450;DHT22;22475;51.390;7.180;2023-04-25T14:37:36;13.60;79.80
36450;DHT22;22475;51.390;7.180;2023-04-25T14:40:03;13.70;79.80
36450;DHT22;22475;51.390;7.180;2023-04-25T14:42:31;13.70;79.60
36450;DHT22;22475;51.390;7.180;2023-04-25T14:44:59;13.70;79.50
36450;DHT22;22475;51.390;7.180;2023-04-25T14:47:26;13.70;79.30
36450;DHT22;22475;51.390;7.180;2023-04-25T14:49:53;13.70;79.20
36450;DHT22;22475;51.390;7.180;2023-04-25T14:52:20;13.70;79.10
36450;DHT22;22475;51.390;7.180;2023-04-25T14:54:47;13.70;79.00
36450;DHT22;22475;51.390;7.180;2023-04-25T14:57:14;13.70;78.90
36450;DHT22;22475;51.390;7.180;2023-04-25T14:59:42;13.70;78.90
36450;DHT22;22475;51.390;7.180;2023-04-25T15:02:09;13.70;78.80
36450;DHT22;22475;51.390;7.180;2023-04-25T15:04:36;13.70;78.60
36450;DHT22;22475;51.390;7.180;2023-04-25T15:07:04;13.80;78.60
36450;DHT22;22475;51.390;7.180;2023-04-25T15:09:31;13.80;78.50
36450;DHT22;22475;51.390;7.180;2023-04-25T15:11:58;13.80;78.20
36450;DHT22;22475;51.390;7.180;2023-04-25T15:14:24;13.80;78.20
36450;DHT22;22475;51.390;7.180;2023-04-25T15:16:53;13.80;78.20
36450;DHT22;22475;51.390;7.180;2023-04-25T15:19:20;13.80;78.10
36450;DHT22;22475;51.390;7.180;2023-04-25T15:21:47;13.80;77.90
36450;DHT22;22475;51.390;7.180;2023-04-25T15:24:13;13.80;77.60
36450;DHT22;22475;51.390;7.180;2023-04-25T15:26:41;13.80;77.70
36450;DHT22;22475;51.390;7.180;2023-04-25T15:29:08;13.80;77.70
36450;DHT22;22475;51.390;7.180;2023-04-25T15:31:35;13.80;77.80
36450;DHT22;22475;51.390;7.180;2023-04-25T15:34:03;13.80;77.90